Time,TemperatureF,DewpointF,PressureIn,WindDirection,WindDirectionDegrees,WindSpeedMPH,WindSpeedGustMPH,Humidity,HourlyPrecipIn,Conditions,Clouds,dailyrainin,SoftwareType,DateUTC
2013-01-26 00:00:00,17.4,7.7,29.98,SSW,202,0.0,0.0,65,0.00,,SKC,0.00,VWS V14.01,2013-01-26 05:00:00,
2013-01-26 00:15:00,17.6,7.8,29.98,SSW,202,0.0,0.0,65,0.00,,SKC,0.00,VWS V14.01,2013-01-26 05:15:00,
2013-01-26 00:30:00,17.6,7.8,29.97,South,180,0.0,0.0,65,0.00,,SKC,0.00,VWS V14.01,2013-01-26 05:30:00,
2013-01-26 00:45:00,17.7,7.9,29.98,South,180,0.0,0.0,65,0.00,,SKC,0.00,VWS V14.01,2013-01-26 05:45:00,
2013-01-26 01:00:00,17.7,7.9,29.97,South,180,0.0,0.0,65,0.00,,SKC,0.00,VWS V14.01,2013-01-26 06:00:00,
2013-01-26 01:15:00,17.7,7.9,29.98,SSW,202,0.0,0.0,65,0.00,,SKC,0.00,VWS V14.01,2013-01-26 06:15:00,
2013-01-26 01:30:00,17.6,7.8,29.98,SSW,202,0.0,0.0,65,0.00,,SKC,0.00,VWS V14.01,2013-01-26 06:30:00,
2013-01-26 01:45:00,17.4,7.7,29.98,SSW,202,0.0,0.0,65,0.00,,SKC,0.00,VWS V14.01,2013-01-26 06:45:00,
2013-01-26 02:00:00,17.7,7.9,29.99,SSW,202,0.0,0.0,65,0.00,,SKC,0.00,VWS V14.01,2013-01-26 07:00:00,
2013-01-26 02:15:00,17.9,8.1,30.00,SSW,202,0.0,0.0,65,0.00,,SKC,0.00,VWS V14.01,2013-01-26 07:15:00,
2013-01-26 02:30:00,17.9,8.1,30.01,SSW,202,0.0,0.0,65,0.00,,SKC,0.00,VWS V14.01,2013-01-26 07:30:00,
2013-01-26 02:45:00,17.9,8.1,30.01,SSW,202,0.0,0.0,65,0.00,,SKC,0.00,VWS V14.01,2013-01-26 07:45:00,
2013-01-26 03:00:00,18.1,8.3,30.01,WSW,248,0.0,0.0,65,0.00,,SKC,0.00,VWS V14.01,2013-01-26 08:00:00,
2013-01-26 03:15:00,18.1,8.3,30.02,NNW,338,0.0,0.0,65,0.00,,SKC,0.00,VWS V14.01,2013-01-26 08:15:00,
2013-01-26 03:30:00,18.1,8.7,30.02,NNW,338,0.0,0.0,66,0.00,,SKC,0.00,VWS V14.01,2013-01-26 08:30:00,
2013-01-26 03:45:00,17.9,8.5,30.02,NNW,338,0.0,0.0,66,0.00,,SKC,0.00,VWS V14.01,2013-01-26 08:45:00,
2013-01-26 04:00:00,18.1,8.7,30.02,NNW,338,0.0,0.0,66,0.00,,SKC,0.00,VWS V14.01,2013-01-26 09:00:00,
2013-01-26 04:15:00,18.3,8.9,30.03,NNW,338,0.0,0.0,66,0.00,,SKC,0.00,VWS V14.01,2013-01-26 09:15:00,
2013-01-26 04:30:00,18.3,8.9,30.03,NNW,338,0.0,0.0,66,0.00,,SKC,0.00,VWS V14.01,2013-01-26 09:30:00,
2013-01-26 04:45:00,18.3,8.9,30.03,NNW,338,0.0,0.0,66,0.00,,SKC,0.00,VWS V14.01,2013-01-26 09:45:00,
2013-01-26 05:00:00,18.3,8.9,30.04,NW,315,0.0,0.0,66,0.00,,SKC,0.00,VWS V14.01,2013-01-26 10:00:00,
2013-01-26 05:15:00,18.3,8.9,30.04,NNW,338,0.0,0.0,66,0.00,,SKC,0.00,VWS V14.01,2013-01-26 10:15:00,
2013-01-26 05:30:00,18.3,8.9,30.05,NNW,338,0.0,0.0,66,0.00,,SKC,0.00,VWS V14.01,2013-01-26 10:30:00,
2013-01-26 05:45:00,18.3,8.9,30.06,NNW,338,0.6,3.8,66,0.00,,SKC,0.00,VWS V14.01,2013-01-26 10:45:00,
2013-01-26 06:00:00,18.3,8.9,30.06,NNW,338,0.0,2.9,66,0.00,,SKC,0.00,VWS V14.01,2013-01-26 11:00:00,
2013-01-26 06:15:00,18.5,9.1,30.07,NNW,338,0.0,3.8,66,0.00,,SKC,0.00,VWS V14.01,2013-01-26 11:15:00,
2013-01-26 06:30:00,18.5,9.1,30.08,NW,315,0.0,0.0,66,0.00,,SKC,0.00,VWS V14.01,2013-01-26 11:30:00,
2013-01-26 06:45:00,18.6,9.1,30.08,NNW,338,0.0,1.3,66,0.00,,SKC,0.00,VWS V14.01,2013-01-26 11:45:00,
2013-01-26 07:00:00,18.5,9.1,30.09,NNW,338,0.0,0.0,66,0.00,,SKC,0.00,VWS V14.01,2013-01-26 12:00:00,
2013-01-26 07:15:00,18.5,9.1,30.10,NNW,338,2.9,2.9,66,0.00,,SKC,0.00,VWS V14.01,2013-01-26 12:15:00,
2013-01-26 07:30:00,18.6,9.1,30.11,NNW,338,0.0,2.9,66,0.00,,SKC,0.00,VWS V14.01,2013-01-26 12:30:00,
2013-01-26 07:45:00,18.6,8.8,30.11,NW,315,0.8,3.1,65,0.00,,SKC,0.00,VWS V14.01,2013-01-26 12:45:00,
2013-01-26 08:00:00,18.5,8.7,30.11,NNW,338,0.0,0.8,65,0.00,,SKC,0.00,VWS V14.01,2013-01-26 13:00:00,
2013-01-26 08:15:00,18.6,8.8,30.11,NNW,338,0.0,1.1,65,0.00,,SKC,0.00,VWS V14.01,2013-01-26 13:15:00,
2013-01-26 08:30:00,18.8,9.0,30.13,NW,315,0.0,1.1,65,0.00,,SKC,0.00,VWS V14.01,2013-01-26 13:30:00,
2013-01-26 08:45:00,19.0,9.2,30.13,NW,315,0.0,0.0,65,0.00,,SKC,0.00,VWS V14.01,2013-01-26 13:45:00,
2013-01-26 09:00:00,19.2,9.0,30.14,NW,315,1.7,1.7,64,0.00,,SKC,0.00,VWS V14.01,2013-01-26 14:00:00,
2013-01-26 09:15:00,19.5,9.3,30.14,NNW,338,0.8,2.9,64,0.00,,SKC,0.00,VWS V14.01,2013-01-26 14:15:00,
2013-01-26 09:30:00,19.9,9.7,30.14,NNW,338,0.6,2.2,64,0.00,,SKC,0.00,VWS V14.01,2013-01-26 14:30:00,
2013-01-26 09:45:00,20.3,9.7,30.15,NW,315,0.0,6.2,63,0.00,,SKC,0.00,VWS V14.01,2013-01-26 14:45:00,
2013-01-26 10:00:00,20.8,9.9,30.16,NW,315,2.0,5.3,62,0.00,,SKC,0.00,VWS V14.01,2013-01-26 15:00:00,
2013-01-26 10:15:00,21.3,10.0,30.17,NW,315,1.5,4.0,61,0.00,,SKC,0.00,VWS V14.01,2013-01-26 15:15:00,
2013-01-26 10:30:00,21.9,10.5,30.18,NNW,338,4.2,4.2,61,0.00,,SKC,0.00,VWS V14.01,2013-01-26 15:30:00,
2013-01-26 10:45:00,22.6,10.4,30.19,NW,315,3.8,4.2,59,0.00,,SKC,0.00,VWS V14.01,2013-01-26 15:45:00,
2013-01-26 11:00:00,23.1,10.1,30.20,North,0,0.0,6.0,57,0.00,,SKC,0.00,VWS V14.01,2013-01-26 16:00:00,
2013-01-26 11:15:00,23.3,9.5,30.20,North,0,4.2,4.2,55,0.00,,SKC,0.00,VWS V14.01,2013-01-26 16:15:00,
2013-01-26 11:30:00,24.0,8.9,30.20,NNW,338,0.0,8.0,52,0.00,,SKC,0.00,VWS V14.01,2013-01-26 16:30:00,
2013-01-26 11:45:00,23.7,7.8,30.21,NNW,338,0.0,3.8,50,0.00,,SKC,0.00,VWS V14.01,2013-01-26 16:45:00,
2013-01-26 12:00:00,23.3,7.0,30.20,North,0,1.7,1.7,49,0.00,,SKC,0.00,VWS V14.01,2013-01-26 17:00:00,
2013-01-26 12:15:00,23.7,7.3,30.21,NNE,22,0.0,1.7,49,0.00,,SKC,0.00,VWS V14.01,2013-01-26 17:15:00,
2013-01-26 12:30:00,23.9,6.6,30.21,NW,315,0.4,3.5,47,0.00,,SKC,0.00,VWS V14.01,2013-01-26 17:30:00,
2013-01-26 12:45:00,24.2,6.9,30.21,West,270,0.0,3.5,47,0.00,,SKC,0.00,VWS V14.01,2013-01-26 17:45:00,
2013-01-26 13:00:00,26.2,8.3,30.21,North,0,2.0,3.1,46,0.00,,SKC,0.00,VWS V14.01,2013-01-26 18:00:00,
2013-01-26 13:15:00,27.5,7.4,30.21,NNE,22,0.0,5.1,42,0.00,,SKC,0.00,VWS V14.01,2013-01-26 18:15:00,
2013-01-26 13:30:00,25.7,5.3,30.21,North,0,0.0,5.1,41,0.00,,SKC,0.00,VWS V14.01,2013-01-26 18:30:00,
2013-01-26 13:45:00,25.7,5.8,30.21,North,0,0.0,3.3,42,0.00,,SKC,0.00,VWS V14.01,2013-01-26 18:45:00,
2013-01-26 14:00:00,25.7,5.3,30.22,NW,315,5.5,5.8,41,0.00,,SKC,0.00,VWS V14.01,2013-01-26 19:00:00,
2013-01-26 14:15:00,25.5,5.1,30.22,NNW,338,0.0,5.5,41,0.00,,SKC,0.00,VWS V14.01,2013-01-26 19:15:00,
2013-01-26 14:30:00,24.9,4.5,30.22,North,0,0.0,1.5,41,0.00,,SKC,0.00,VWS V14.01,2013-01-26 19:30:00,
2013-01-26 14:45:00,25.3,5.4,30.23,WNW,292,2.4,3.5,42,0.00,,SKC,0.00,VWS V14.01,2013-01-26 19:45:00,
2013-01-26 15:00:00,26.7,6.7,30.23,NW,315,3.3,3.3,42,0.00,,SKC,0.00,VWS V14.01,2013-01-26 20:00:00,
2013-01-26 15:45:00,23.7,2.9,30.24,North,0,0.0,0.0,40,0.00,,SKC,0.00,VWS V14.01,2013-01-26 20:45:00,
2013-01-26 16:00:00,23.3,3.1,30.25,NNE,22,0.0,0.0,41,0.00,,SKC,0.00,VWS V14.01,2013-01-26 21:00:00,
2013-01-26 16:15:00,23.7,4.0,30.25,NNE,22,0.0,0.0,42,0.00,,SKC,0.00,VWS V14.01,2013-01-26 21:15:00,
2013-01-26 16:30:00,23.1,3.4,30.25,NNE,22,0.0,0.0,42,0.00,,SKC,0.00,VWS V14.01,2013-01-26 21:30:00,
2013-01-26 16:45:00,23.1,3.4,30.27,NNE,22,0.0,0.0,42,0.00,,SKC,0.00,VWS V14.01,2013-01-26 21:45:00,
2013-01-26 17:00:00,23.1,3.4,30.27,NNE,22,0.0,0.0,42,0.00,,SKC,0.00,VWS V14.01,2013-01-26 22:00:00,
2013-01-26 17:15:00,22.8,3.2,30.27,NNE,22,0.0,0.0,42,0.00,,SKC,0.00,VWS V14.01,2013-01-26 22:15:00,
2013-01-26 17:30:00,22.8,3.7,30.28,NNE,22,0.0,0.0,43,0.00,,SKC,0.00,VWS V14.01,2013-01-26 22:30:00,
2013-01-26 17:45:00,22.8,4.7,30.29,NNE,22,0.0,0.0,45,0.00,,SKC,0.00,VWS V14.01,2013-01-26 22:45:00,
2013-01-26 18:00:00,22.8,4.7,30.30,NNE,22,0.0,0.0,45,0.00,,SKC,0.00,VWS V14.01,2013-01-26 23:00:00,
2013-01-26 18:15:00,22.8,5.1,30.31,NNE,22,0.0,0.0,46,0.00,,SKC,0.00,VWS V14.01,2013-01-26 23:15:00,
2013-01-26 18:30:00,22.6,4.9,30.31,North,0,0.0,0.0,46,0.00,,SKC,0.00,VWS V14.01,2013-01-26 23:30:00,
2013-01-26 18:45:00,21.9,4.3,30.32,NNW,338,0.0,0.0,46,0.00,,SKC,0.00,VWS V14.01,2013-01-26 23:45:00,
2013-01-26 19:00:00,21.3,4.2,30.33,NNW,338,0.0,0.0,47,0.00,,SKC,0.00,VWS V14.01,2013-01-27 00:00:00,
2013-01-26 19:15:00,20.6,3.6,30.33,NNW,338,0.0,0.0,47,0.00,,SKC,0.00,VWS V14.01,2013-01-27 00:15:00,
2013-01-26 19:30:00,19.7,2.8,30.32,NNW,338,0.0,0.0,47,0.00,,SKC,0.00,VWS V14.01,2013-01-27 00:30:00,
2013-01-26 19:45:00,18.5,1.6,30.32,NNW,338,0.0,0.0,47,0.00,,SKC,0.00,VWS V14.01,2013-01-27 00:45:00,
2013-01-26 20:00:00,17.4,0.6,30.32,NNW,338,0.0,0.0,47,0.00,,SKC,0.00,VWS V14.01,2013-01-27 01:00:00,
2013-01-26 20:15:00,17.0,0.7,30.33,NNW,338,0.0,0.0,48,0.00,,SKC,0.00,VWS V14.01,2013-01-27 01:15:00,
2013-01-26 20:30:00,16.8,1.0,30.32,NNW,338,0.0,0.0,49,0.00,,SKC,0.00,VWS V14.01,2013-01-27 01:30:00,
2013-01-26 20:45:00,16.7,1.3,30.32,NNW,338,0.0,0.0,50,0.00,,SKC,0.00,VWS V14.01,2013-01-27 01:45:00,
2013-01-26 21:00:00,16.3,0.9,30.32,NNW,338,0.0,0.0,50,0.00,,SKC,0.00,VWS V14.01,2013-01-27 02:00:00,
2013-01-26 21:15:00,15.9,0.6,30.34,NNW,338,0.0,0.0,50,0.00,,SKC,0.00,VWS V14.01,2013-01-27 02:15:00,
2013-01-26 21:30:00,15.6,0.7,30.34,NNW,338,0.0,0.0,51,0.00,,SKC,0.00,VWS V14.01,2013-01-27 02:30:00,
2013-01-26 21:45:00,15.2,0.3,30.35,NNW,338,0.0,0.0,51,0.00,,SKC,0.00,VWS V14.01,2013-01-27 02:45:00,
2013-01-26 22:00:00,15.2,0.8,30.34,NNW,338,0.0,0.0,52,0.00,,SKC,0.00,VWS V14.01,2013-01-27 03:00:00,
2013-01-26 22:15:00,15.0,0.6,30.34,NNW,338,0.0,0.0,52,0.00,,SKC,0.00,VWS V14.01,2013-01-27 03:15:00,
2013-01-26 22:30:00,15.0,1.0,30.34,NNW,338,0.0,0.0,53,0.00,,SKC,0.00,VWS V14.01,2013-01-27 03:30:00,
2013-01-26 22:45:00,15.2,1.5,30.34,NNW,338,0.0,0.0,54,0.00,,SKC,0.00,VWS V14.01,2013-01-27 03:45:00,
2013-01-26 23:00:00,15.4,1.7,30.34,NNW,338,0.0,0.0,54,0.00,,SKC,0.00,VWS V14.01,2013-01-27 04:00:00,
2013-01-26 23:15:00,15.4,2.1,30.35,NNW,338,0.0,0.0,55,0.00,,SKC,0.00,VWS V14.01,2013-01-27 04:15:00,
2013-01-26 23:30:00,15.4,2.1,30.36,NNW,338,0.0,0.0,55,0.00,,SKC,0.00,VWS V14.01,2013-01-27 04:30:00,
2013-01-26 23:45:00,15.4,2.1,30.37,NNW,338,0.0,0.0,55,0.00,,SKC,0.00,VWS V14.01,2013-01-27 04:45:00,